sensor_id;sensor_type;location;lat;lon;timestamp;P1;durP1;ratioP1;P2;durP2;ratioP2
4575;SDS011;2300;51.874;8.430;2024-03-08T00:00:32;37.63;;;24.23;;
4575;SDS011;2300;51.874;8.430;2024-03-08T00:02:59;39.97;;;25.33;;
4575;SDS011;2300;51.874;8.430;2024-03-08T00:05:27;40.67;;;25.47;;
4575;SDS011;2300;51.874;8.430;2024-03-08T00:07:55;37.90;;;25.20;;
4575;SDS011;2300;51.874;8.430;2024-03-08T00:10:21;39.77;;;25.67;;
4575;SDS011;2300;51.874;8.430;2024-03-08T00:12:48;39.27;;;25.37;;
4575;SDS011;2300;51.874;8.430;2024-03-08T00:15:16;39.63;;;25.67;;
4575;SDS011;2300;51.874;8.430;2024-03-08T00:17:43;35.97;;;24.27;;
4575;SDS011;2300;51.874;8.430;2024-03-08T00:20:11;41.23;;;26.10;;
4575;SDS011;2300;51.874;8.430;2024-03-08T00:22:38;41.27;;;25.87;;
4575;SDS011;2300;51.874;8.430;2024-03-08T00:25:07;38.83;;;26.20;;
4575;SDS011;2300;51.874;8.430;2024-03-08T00:27:34;39.47;;;25.10;;
4575;SDS011;2300;51.874;8.430;2024-03-08T00:30:01;44.63;;;27.53;;
4575;SDS011;2300;51.874;8.430;2024-03-08T00:32:28;44.10;;;27.87;;
4575;SDS011;2300;51.874;8.430;2024-03-08T00:34:54;41.83;;;27.33;;
4575;SDS011;2300;51.874;8.430;2024-03-08T00:37:21;41.27;;;27.33;;
4575;SDS011;2300;51.874;8.430;2024-03-08T00:39:47;42.03;;;26.93;;
4575;SDS011;2300;51.874;8.430;2024-03-08T00:42:15;40.73;;;26.70;;
4575;SDS011;2300;51.874;8.430;2024-03-08T00:44:42;39.73;;;26.60;;
4575;SDS011;2300;51.874;8.430;2024-03-08T00:47:08;43.10;;;26.87;;
4575;SDS011;2300;51.874;8.430;2024-03-08T00:49:35;44.43;;;26.43;;
4575;SDS011;2300;51.874;8.430;2024-03-08T00:52:03;40.70;;;26.30;;
4575;SDS011;2300;51.874;8.430;2024-03-08T00:54:31;43.33;;;27.47;;
4575;SDS011;2300;51.874;8.430;2024-03-08T00:56:58;38.83;;;26.03;;
4575;SDS011;2300;51.874;8.430;2024-03-08T00:59:26;40.93;;;27.43;;
4575;SDS011;2300;51.874;8.430;2024-03-08T01:01:53;42.73;;;27.93;;
4575;SDS011;2300;51.874;8.430;2024-03-08T01:04:19;42.97;;;27.80;;
4575;SDS011;2300;51.874;8.430;2024-03-08T01:06:46;41.53;;;27.00;;
4575;SDS011;2300;51.874;8.430;2024-03-08T01:09:12;41.60;;;26.67;;
4575;SDS011;2300;51.874;8.430;2024-03-08T01:11:39;43.87;;;27.53;;
4575;SDS011;2300;51.874;8.430;2024-03-08T01:14:07;48.03;;;27.40;;
4575;SDS011;2300;51.874;8.430;2024-03-08T01:16:35;44.27;;;27.33;;
4575;SDS011;2300;51.874;8.430;2024-03-08T01:19:01;45.10;;;27.60;;
4575;SDS011;2300;51.874;8.430;2024-03-08T01:21:28;44.67;;;27.93;;
4575;SDS011;2300;51.874;8.430;2024-03-08T01:23:54;41.43;;;27.73;;
4575;SDS011;2300;51.874;8.430;2024-03-08T01:26:21;44.60;;;28.27;;
4575;SDS011;2300;51.874;8.430;2024-03-08T01:28:48;46.13;;;26.60;;
4575;SDS011;2300;51.874;8.430;2024-03-08T01:31:15;45.20;;;28.73;;
4575;SDS011;2300;51.874;8.430;2024-03-08T01:33:43;43.60;;;27.53;;
4575;SDS011;2300;51.874;8.430;2024-03-08T01:36:10;41.27;;;28.10;;
4575;SDS011;2300;51.874;8.430;2024-03-08T01:38:40;47.87;;;29.07;;
4575;SDS011;2300;51.874;8.430;2024-03-08T01:41:06;45.43;;;28.87;;
4575;SDS011;2300;51.874;8.430;2024-03-08T01:43:34;46.50;;;29.00;;
4575;SDS011;2300;51.874;8.430;2024-03-08T01:46:00;44.33;;;27.90;;
4575;SDS011;2300;51.874;8.430;2024-03-08T01:48:28;43.13;;;28.23;;
4575;SDS011;2300;51.874;8.430;2024-03-08T01:50:56;44.63;;;29.73;;
4575;SDS011;2300;51.874;8.430;2024-03-08T01:53:23;42.87;;;28.07;;
4575;SDS011;2300;51.874;8.430;2024-03-08T01:55:52;42.90;;;28.77;;
4575;SDS011;2300;51.874;8.430;2024-03-08T01:58:22;44.87;;;28.33;;
4575;SDS011;2300;51.874;8.430;2024-03-08T02:00:49;44.93;;;29.80;;
4575;SDS011;2300;51.874;8.430;2024-03-08T02:03:15;45.40;;;29.50;;
4575;SDS011;2300;51.874;8.430;2024-03-08T02:05:42;46.67;;;29.60;;
4575;SDS011;2300;51.874;8.430;2024-03-08T02:08:10;49.00;;;29.30;;
4575;SDS011;2300;51.874;8.430;2024-03-08T02:10:39;47.77;;;30.40;;
4575;SDS011;2300;51.874;8.430;2024-03-08T02:13:06;46.47;;;29.53;;
4575;SDS011;2300;51.874;8.430;2024-03-08T02:15:52;51.30;;;30.80;;
4575;SDS011;2300;51.874;8.430;2024-03-08T02:18:19;47.20;;;30.07;;
4575;SDS011;2300;51.874;8.430;2024-03-08T02:20:47;46.07;;;30.30;;
4575;SDS011;2300;51.874;8.430;2024-03-08T02:23:14;47.13;;;28.67;;
4575;SDS011;2300;51.874;8.430;2024-03-08T02:25:41;46.80;;;28.73;;
4575;SDS011;2300;51.874;8.430;2024-03-08T02:28:08;45.80;;;30.10;;
4575;SDS011;2300;51.874;8.430;2024-03-08T02:30:36;45.97;;;30.43;;
4575;SDS011;2300;51.874;8.430;2024-03-08T02:33:03;48.70;;;31.57;;
4575;SDS011;2300;51.874;8.430;2024-03-08T02:35:30;49.57;;;31.33;;
4575;SDS011;2300;51.874;8.430;2024-03-08T02:37:58;44.87;;;29.27;;
4575;SDS011;2300;51.874;8.430;2024-03-08T02:40:24;49.07;;;30.93;;
4575;SDS011;2300;51.874;8.430;2024-03-08T02:42:51;49.07;;;30.47;;
4575;SDS011;2300;51.874;8.430;2024-03-08T02:45:17;47.57;;;29.17;;
4575;SDS011;2300;51.874;8.430;2024-03-08T02:47:44;49.90;;;30.40;;
4575;SDS011;2300;51.874;8.430;2024-03-08T02:50:10;47.67;;;31.03;;
4575;SDS011;2300;51.874;8.430;2024-03-08T02:52:41;48.00;;;30.50;;
4575;SDS011;2300;51.874;8.430;2024-03-08T02:55:09;47.53;;;29.83;;
4575;SDS011;2300;51.874;8.430;2024-03-08T02:57:40;47.87;;;30.33;;
4575;SDS011;2300;51.874;8.430;2024-03-08T03:00:07;47.07;;;29.80;;
4575;SDS011;2300;51.874;8.430;2024-03-08T03:02:35;53.07;;;30.70;;
4575;SDS011;2300;51.874;8.430;2024-03-08T03:05:01;45.97;;;28.87;;
4575;SDS011;2300;51.874;8.430;2024-03-08T03:07:30;49.53;;;30.60;;
4575;SDS011;2300;51.874;8.430;2024-03-08T03:09:58;47.93;;;30.13;;
4575;SDS011;2300;51.874;8.430;2024-03-08T03:12:26;51.27;;;30.80;;
4575;SDS011;2300;51.874;8.430;2024-03-08T03:14:53;49.17;;;30.87;;
4575;SDS011;2300;51.874;8.430;2024-03-08T03:17:19;49.10;;;31.43;;
4575;SDS011;2300;51.874;8.430;2024-03-08T03:19:45;50.50;;;31.50;;
4575;SDS011;2300;51.874;8.430;2024-03-08T03:22:11;47.67;;;30.40;;
4575;SDS011;2300;51.874;8.430;2024-03-08T03:24:38;50.67;;;30.80;;
4575;SDS011;2300;51.874;8.430;2024-03-08T03:27:05;48.40;;;29.47;;
4575;SDS011;2300;51.874;8.430;2024-03-08T03:29:37;51.83;;;32.07;;
4575;SDS011;2300;51.874;8.430;2024-03-08T03:32:04;47.40;;;30.13;;
4575;SDS011;2300;51.874;8.430;2024-03-08T03:34:32;51.17;;;30.93;;
4575;SDS011;2300;51.874;8.430;2024-03-08T03:37:01;49.80;;;31.53;;
4575;SDS011;2300;51.874;8.430;2024-03-08T03:39:28;49.90;;;31.23;;
4575;SDS011;2300;51.874;8.430;2024-03-08T03:41:56;50.67;;;30.57;;
4575;SDS011;2300;51.874;8.430;2024-03-08T03:44:23;50.27;;;30.93;;
4575;SDS011;2300;51.874;8.430;2024-03-08T03:46:51;47.57;;;31.43;;
4575;SDS011;2300;51.874;8.430;2024-03-08T03:49:17;47.67;;;31.07;;
4575;SDS011;2300;51.874;8.430;2024-03-08T03:51:44;52.03;;;31.60;;
4575;SDS011;2300;51.874;8.430;2024-03-08T03:54:10;48.30;;;31.17;;
4575;SDS011;2300;51.874;8.430;2024-03-08T03:56:37;51.47;;;31.77;;
4575;SDS011;2300;51.874;8.430;2024-03-08T03:59:04;53.07;;;31.93;;
4575;SDS011;2300;51.874;8.430;2024-03-08T04:01:31;53.90;;;32.80;;
4575;SDS011;2300;51.874;8.430;2024-03-08T04:03:59;53.20;;;32.90;;
4575;SDS011;2300;51.874;8.430;2024-03-08T04:06:26;51.73;;;32.10;;
4575;SDS011;2300;51.874;8.430;2024-03-08T04:08:52;53.83;;;32.30;;
4575;SDS011;2300;51.874;8.430;2024-03-08T04:11:18;53.77;;;32.57;;
4575;SDS011;2300;51.874;8.430;2024-03-08T04:13:45;51.43;;;32.00;;
4575;SDS011;2300;51.874;8.430;2024-03-08T04:16:12;50.17;;;30.53;;
4575;SDS011;2300;51.874;8.430;2024-03-08T04:18:38;53.20;;;32.87;;
4575;SDS011;2300;51.874;8.430;2024-03-08T04:21:06;51.30;;;31.53;;
4575;SDS011;2300;51.874;8.430;2024-03-08T04:23:33;51.20;;;32.57;;
4575;SDS011;2300;51.874;8.430;2024-03-08T04:26:00;52.13;;;32.57;;
4575;SDS011;2300;51.874;8.430;2024-03-08T04:28:27;52.83;;;32.33;;
4575;SDS011;2300;51.874;8.430;2024-03-08T04:30:53;53.53;;;32.33;;
4575;SDS011;2300;51.874;8.430;2024-03-08T04:33:20;57.53;;;34.40;;
4575;SDS011;2300;51.874;8.430;2024-03-08T04:35:48;53.53;;;32.00;;
4575;SDS011;2300;51.874;8.430;2024-03-08T04:38:16;57.23;;;32.90;;
4575;SDS011;2300;51.874;8.430;2024-03-08T04:40:43;52.57;;;32.43;;
4575;SDS011;2300;51.874;8.430;2024-03-08T04:43:09;53.30;;;32.67;;
4575;SDS011;2300;51.874;8.430;2024-03-08T04:45:36;52.97;;;31.47;;
4575;SDS011;2300;51.874;8.430;2024-03-08T04:48:02;55.83;;;33.53;;
4575;SDS011;2300;51.874;8.430;2024-03-08T04:50:29;56.03;;;34.10;;
4575;SDS011;2300;51.874;8.430;2024-03-08T04:52:55;56.43;;;34.90;;
4575;SDS011;2300;51.874;8.430;2024-03-08T04:55:23;55.83;;;32.73;;
4575;SDS011;2300;51.874;8.430;2024-03-08T04:57:50;60.57;;;34.60;;
4575;SDS011;2300;51.874;8.430;2024-03-08T05:00:16;51.10;;;31.80;;
4575;SDS011;2300;51.874;8.430;2024-03-08T05:02:44;53.73;;;33.27;;
4575;SDS011;2300;51.874;8.430;2024-03-08T05:05:10;53.13;;;32.33;;
4575;SDS011;2300;51.874;8.430;2024-03-08T05:07:37;58.83;;;33.20;;
4575;SDS011;2300;51.874;8.430;2024-03-08T05:10:04;55.67;;;33.00;;
4575;SDS011;2300;51.874;8.430;2024-03-08T05:12:33;50.93;;;31.40;;
4575;SDS011;2300;51.874;8.430;2024-03-08T05:14:59;52.57;;;31.00;;
4575;SDS011;2300;51.874;8.430;2024-03-08T05:17:26;54.20;;;31.50;;
4575;SDS011;2300;51.874;8.430;2024-03-08T05:19:53;53.63;;;30.90;;
4575;SDS011;2300;51.874;8.430;2024-03-08T05:22:19;55.60;;;31.13;;
4575;SDS011;2300;51.874;8.430;2024-03-08T05:24:45;50.10;;;31.23;;
4575;SDS011;2300;51.874;8.430;2024-03-08T05:27:12;53.17;;;31.73;;
4575;SDS011;2300;51.874;8.430;2024-03-08T05:29:40;53.27;;;31.10;;
4575;SDS011;2300;51.874;8.430;2024-03-08T05:32:07;50.10;;;30.10;;
4575;SDS011;2300;51.874;8.430;2024-03-08T05:34:34;53.00;;;30.50;;
4575;SDS011;2300;51.874;8.430;2024-03-08T05:37:01;51.67;;;31.03;;
4575;SDS011;2300;51.874;8.430;2024-03-08T05:39:27;49.03;;;30.63;;
4575;SDS011;2300;51.874;8.430;2024-03-08T05:41:54;52.10;;;30.67;;
4575;SDS011;2300;51.874;8.430;2024-03-08T05:44:21;52.20;;;31.30;;
4575;SDS011;2300;51.874;8.430;2024-03-08T05:46:49;52.93;;;30.93;;
4575;SDS011;2300;51.874;8.430;2024-03-08T05:49:15;58.00;;;31.30;;
4575;SDS011;2300;51.874;8.430;2024-03-08T05:51:42;63.57;;;36.40;;
4575;SDS011;2300;51.874;8.430;2024-03-08T05:54:09;54.20;;;32.27;;
4575;SDS011;2300;51.874;8.430;2024-03-08T05:56:37;55.40;;;32.30;;
4575;SDS011;2300;51.874;8.430;2024-03-08T05:59:04;54.87;;;32.00;;
4575;SDS011;2300;51.874;8.430;2024-03-08T06:01:30;54.83;;;32.00;;
4575;SDS011;2300;51.874;8.430;2024-03-08T06:03:58;55.23;;;32.43;;
4575;SDS011;2300;51.874;8.430;2024-03-08T06:06:25;50.57;;;31.47;;
4575;SDS011;2300;51.874;8.430;2024-03-08T06:08:52;55.10;;;32.13;;
4575;SDS011;2300;51.874;8.430;2024-03-08T06:11:19;53.40;;;31.30;;
4575;SDS011;2300;51.874;8.430;2024-03-08T06:13:46;54.97;;;31.60;;
4575;SDS011;2300;51.874;8.430;2024-03-08T06:16:13;54.67;;;31.77;;
4575;SDS011;2300;51.874;8.430;2024-03-08T06:18:39;48.87;;;30.90;;
4575;SDS011;2300;51.874;8.430;2024-03-08T06:21:07;55.07;;;33.20;;
4575;SDS011;2300;51.874;8.430;2024-03-08T06:23:36;60.93;;;32.53;;
4575;SDS011;2300;51.874;8.430;2024-03-08T06:26:03;57.07;;;32.77;;
4575;SDS011;2300;51.874;8.430;2024-03-08T06:28:30;54.63;;;33.93;;
4575;SDS011;2300;51.874;8.430;2024-03-08T06:30:57;54.40;;;32.27;;
4575;SDS011;2300;51.874;8.430;2024-03-08T06:33:24;53.53;;;32.47;;
4575;SDS011;2300;51.874;8.430;2024-03-08T06:35:51;55.60;;;32.57;;
4575;SDS011;2300;51.874;8.430;2024-03-08T06:38:19;56.37;;;33.23;;
4575;SDS011;2300;51.874;8.430;2024-03-08T06:40:45;59.83;;;32.80;;
4575;SDS011;2300;51.874;8.430;2024-03-08T06:43:13;54.90;;;33.00;;
4575;SDS011;2300;51.874;8.430;2024-03-08T06:45:41;56.63;;;34.37;;
4575;SDS011;2300;51.874;8.430;2024-03-08T06:48:10;52.97;;;32.43;;
4575;SDS011;2300;51.874;8.430;2024-03-08T06:50:37;53.57;;;31.00;;
4575;SDS011;2300;51.874;8.430;2024-03-08T06:53:04;56.87;;;33.60;;
4575;SDS011;2300;51.874;8.430;2024-03-08T06:55:32;53.37;;;31.70;;
4575;SDS011;2300;51.874;8.430;2024-03-08T06:57:59;56.67;;;33.80;;
4575;SDS011;2300;51.874;8.430;2024-03-08T07:00:25;53.17;;;33.20;;
4575;SDS011;2300;51.874;8.430;2024-03-08T07:02:53;56.60;;;31.73;;
4575;SDS011;2300;51.874;8.430;2024-03-08T07:05:20;53.93;;;32.57;;
4575;SDS011;2300;51.874;8.430;2024-03-08T07:07:46;52.73;;;32.23;;
4575;SDS011;2300;51.874;8.430;2024-03-08T07:10:14;50.70;;;32.13;;
4575;SDS011;2300;51.874;8.430;2024-03-08T07:12:43;54.27;;;31.90;;
4575;SDS011;2300;51.874;8.430;2024-03-08T07:15:09;49.67;;;31.30;;
4575;SDS011;2300;51.874;8.430;2024-03-08T07:17:38;51.23;;;31.50;;
4575;SDS011;2300;51.874;8.430;2024-03-08T07:20:05;48.10;;;29.83;;
4575;SDS011;2300;51.874;8.430;2024-03-08T07:22:37;51.20;;;30.37;;
4575;SDS011;2300;51.874;8.430;2024-03-08T07:25:04;54.33;;;31.37;;
4575;SDS011;2300;51.874;8.430;2024-03-08T07:27:46;53.87;;;31.53;;
4575;SDS011;2300;51.874;8.430;2024-03-08T07:30:13;53.07;;;32.03;;
4575;SDS011;2300;51.874;8.430;2024-03-08T07:33:01;51.73;;;31.77;;
4575;SDS011;2300;51.874;8.430;2024-03-08T07:35:28;49.40;;;31.27;;
4575;SDS011;2300;51.874;8.430;2024-03-08T07:37:56;51.73;;;31.60;;
4575;SDS011;2300;51.874;8.430;2024-03-08T07:40:22;53.37;;;31.53;;
4575;SDS011;2300;51.874;8.430;2024-03-08T07:42:50;55.60;;;32.60;;
4575;SDS011;2300;51.874;8.430;2024-03-08T07:45:17;51.10;;;30.43;;
4575;SDS011;2300;51.874;8.430;2024-03-08T07:47:44;50.67;;;31.70;;
4575;SDS011;2300;51.874;8.430;2024-03-08T07:50:10;53.43;;;32.17;;
4575;SDS011;2300;51.874;8.430;2024-03-08T07:52:40;53.23;;;32.37;;
4575;SDS011;2300;51.874;8.430;2024-03-08T07:55:07;49.40;;;31.60;;
4575;SDS011;2300;51.874;8.430;2024-03-08T07:57:35;50.50;;;32.00;;
4575;SDS011;2300;51.874;8.430;2024-03-08T08:00:05;53.00;;;31.13;;
4575;SDS011;2300;51.874;8.430;2024-03-08T08:02:33;52.57;;;31.70;;
4575;SDS011;2300;51.874;8.430;2024-03-08T08:05:00;51.67;;;30.83;;
4575;SDS011;2300;51.874;8.430;2024-03-08T08:07:27;52.50;;;31.53;;
4575;SDS011;2300;51.874;8.430;2024-03-08T08:09:53;47.83;;;29.90;;
4575;SDS011;2300;51.874;8.430;2024-03-08T08:12:20;49.37;;;30.00;;
4575;SDS011;2300;51.874;8.430;2024-03-08T08:14:46;48.73;;;30.03;;
4575;SDS011;2300;51.874;8.430;2024-03-08T08:17:14;50.33;;;29.90;;
4575;SDS011;2300;51.874;8.430;2024-03-08T08:19:40;49.47;;;30.70;;
4575;SDS011;2300;51.874;8.430;2024-03-08T08:22:08;48.30;;;29.70;;
4575;SDS011;2300;51.874;8.430;2024-03-08T08:24:34;46.83;;;30.17;;
4575;SDS011;2300;51.874;8.430;2024-03-08T08:27:01;47.77;;;29.63;;
4575;SDS011;2300;51.874;8.430;2024-03-08T08:29:28;50.07;;;30.90;;
4575;SDS011;2300;51.874;8.430;2024-03-08T08:31:55;47.80;;;28.70;;
4575;SDS011;2300;51.874;8.430;2024-03-08T08:34:25;47.43;;;30.27;;
4575;SDS011;2300;51.874;8.430;2024-03-08T08:36:52;45.47;;;29.47;;
4575;SDS011;2300;51.874;8.430;2024-03-08T08:39:19;45.93;;;28.80;;
4575;SDS011;2300;51.874;8.430;2024-03-08T08:41:47;46.30;;;29.70;;
4575;SDS011;2300;51.874;8.430;2024-03-08T08:44:14;48.30;;;28.90;;
4575;SDS011;2300;51.874;8.430;2024-03-08T08:46:40;45.20;;;29.00;;
4575;SDS011;2300;51.874;8.430;2024-03-08T08:49:07;42.23;;;27.93;;
4575;SDS011;2300;51.874;8.430;2024-03-08T08:51:37;46.53;;;29.07;;
4575;SDS011;2300;51.874;8.430;2024-03-08T08:54:03;43.93;;;27.67;;
4575;SDS011;2300;51.874;8.430;2024-03-08T08:56:31;46.40;;;29.53;;
4575;SDS011;2300;51.874;8.430;2024-03-08T08:58:58;43.80;;;28.17;;
4575;SDS011;2300;51.874;8.430;2024-03-08T09:01:24;45.10;;;29.03;;
4575;SDS011;2300;51.874;8.430;2024-03-08T09:03:51;44.27;;;28.57;;
4575;SDS011;2300;51.874;8.430;2024-03-08T09:06:19;43.10;;;28.83;;
4575;SDS011;2300;51.874;8.430;2024-03-08T09:08:47;44.43;;;28.03;;
4575;SDS011;2300;51.874;8.430;2024-03-08T09:11:13;46.63;;;28.90;;
4575;SDS011;2300;51.874;8.430;2024-03-08T09:13:40;43.50;;;28.27;;
4575;SDS011;2300;51.874;8.430;2024-03-08T09:16:06;41.03;;;26.77;;
4575;SDS011;2300;51.874;8.430;2024-03-08T09:18:35;45.63;;;27.20;;
4575;SDS011;2300;51.874;8.430;2024-03-08T09:21:02;45.17;;;28.13;;
4575;SDS011;2300;51.874;8.430;2024-03-08T09:23:30;40.77;;;27.87;;
4575;SDS011;2300;51.874;8.430;2024-03-08T09:25:58;46.00;;;29.13;;
4575;SDS011;2300;51.874;8.430;2024-03-08T09:28:24;40.93;;;27.80;;
4575;SDS011;2300;51.874;8.430;2024-03-08T09:30:52;40.07;;;26.13;;
4575;SDS011;2300;51.874;8.430;2024-03-08T09:33:19;43.17;;;27.77;;
4575;SDS011;2300;51.874;8.430;2024-03-08T09:35:47;41.80;;;25.77;;
4575;SDS011;2300;51.874;8.430;2024-03-08T09:38:13;42.67;;;27.57;;
4575;SDS011;2300;51.874;8.430;2024-03-08T09:40:40;43.90;;;29.30;;
4575;SDS011;2300;51.874;8.430;2024-03-08T09:43:08;45.60;;;28.93;;
4575;SDS011;2300;51.874;8.430;2024-03-08T09:45:36;44.17;;;27.67;;
4575;SDS011;2300;51.874;8.430;2024-03-08T09:48:04;41.40;;;27.47;;
4575;SDS011;2300;51.874;8.430;2024-03-08T09:50:33;41.47;;;27.87;;
4575;SDS011;2300;51.874;8.430;2024-03-08T09:53:00;42.57;;;27.67;;
4575;SDS011;2300;51.874;8.430;2024-03-08T09:55:28;39.23;;;25.80;;
4575;SDS011;2300;51.874;8.430;2024-03-08T09:57:59;38.40;;;26.33;;
4575;SDS011;2300;51.874;8.430;2024-03-08T10:01:02;37.60;;;25.43;;
4575;SDS011;2300;51.874;8.430;2024-03-08T10:03:29;37.30;;;24.77;;
4575;SDS011;2300;51.874;8.430;2024-03-08T10:05:57;36.13;;;24.47;;
4575;SDS011;2300;51.874;8.430;2024-03-08T10:08:25;38.20;;;25.37;;
4575;SDS011;2300;51.874;8.430;2024-03-08T10:10:52;37.13;;;24.30;;
4575;SDS011;2300;51.874;8.430;2024-03-08T10:13:18;35.43;;;23.83;;
4575;SDS011;2300;51.874;8.430;2024-03-08T10:15:45;39.87;;;26.13;;
4575;SDS011;2300;51.874;8.430;2024-03-08T10:18:13;35.80;;;24.60;;
4575;SDS011;2300;51.874;8.430;2024-03-08T10:20:40;37.10;;;24.23;;
4575;SDS011;2300;51.874;8.430;2024-03-08T10:23:08;35.37;;;24.53;;
4575;SDS011;2300;51.874;8.430;2024-03-08T10:25:35;41.37;;;25.83;;
4575;SDS011;2300;51.874;8.430;2024-03-08T10:28:03;34.67;;;24.90;;
4575;SDS011;2300;51.874;8.430;2024-03-08T10:30:30;36.53;;;25.10;;
4575;SDS011;2300;51.874;8.430;2024-03-08T10:32:57;36.77;;;25.20;;
4575;SDS011;2300;51.874;8.430;2024-03-08T10:35:25;33.17;;;23.97;;
4575;SDS011;2300;51.874;8.430;2024-03-08T10:37:52;34.87;;;23.83;;
4575;SDS011;2300;51.874;8.430;2024-03-08T10:40:24;39.73;;;24.67;;
4575;SDS011;2300;51.874;8.430;2024-03-08T10:42:52;36.00;;;24.70;;
4575;SDS011;2300;51.874;8.430;2024-03-08T10:45:23;37.30;;;24.47;;
4575;SDS011;2300;51.874;8.430;2024-03-08T10:47:59;32.83;;;23.23;;
4575;SDS011;2300;51.874;8.430;2024-03-08T10:50:36;33.30;;;22.30;;
4575;SDS011;2300;51.874;8.430;2024-03-08T10:53:04;30.53;;;20.53;;
4575;SDS011;2300;51.874;8.430;2024-03-08T10:55:33;35.73;;;24.33;;
4575;SDS011;2300;51.874;8.430;2024-03-08T10:58:00;30.77;;;21.40;;
4575;SDS011;2300;51.874;8.430;2024-03-08T11:00:26;31.43;;;22.60;;
4575;SDS011;2300;51.874;8.430;2024-03-08T11:02:53;30.40;;;20.57;;
4575;SDS011;2300;51.874;8.430;2024-03-08T11:05:31;29.97;;;20.87;;
4575;SDS011;2300;51.874;8.430;2024-03-08T11:08:01;30.83;;;20.30;;
4575;SDS011;2300;51.874;8.430;2024-03-08T11:10:29;29.33;;;19.83;;
4575;SDS011;2300;51.874;8.430;2024-03-08T11:12:55;30.77;;;19.80;;
4575;SDS011;2300;51.874;8.430;2024-03-08T11:15:23;28.63;;;19.33;;
4575;SDS011;2300;51.874;8.430;2024-03-08T11:17:50;30.10;;;20.70;;
4575;SDS011;2300;51.874;8.430;2024-03-08T11:20:20;29.37;;;20.87;;
4575;SDS011;2300;51.874;8.430;2024-03-08T11:22:50;28.60;;;19.83;;
4575;SDS011;2300;51.874;8.430;2024-03-08T11:25:36;32.27;;;22.17;;
4575;SDS011;2300;51.874;8.430;2024-03-08T11:28:08;30.80;;;20.70;;
4575;SDS011;2300;51.874;8.430;2024-03-08T11:30:41;27.67;;;18.33;;
4575;SDS011;2300;51.874;8.430;2024-03-08T11:33:10;26.10;;;18.63;;
4575;SDS011;2300;51.874;8.430;2024-03-08T11:35:38;23.33;;;15.80;;
4575;SDS011;2300;51.874;8.430;2024-03-08T11:38:05;28.50;;;19.57;;
4575;SDS011;2300;51.874;8.430;2024-03-08T11:40:33;29.90;;;19.57;;
4575;SDS011;2300;51.874;8.430;2024-03-08T11:43:02;27.30;;;19.53;;
4575;SDS011;2300;51.874;8.430;2024-03-08T11:45:32;28.20;;;19.20;;
4575;SDS011;2300;51.874;8.430;2024-03-08T11:48:01;32.93;;;20.43;;
4575;SDS011;2300;51.874;8.430;2024-03-08T11:50:28;27.50;;;18.63;;
4575;SDS011;2300;51.874;8.430;2024-03-08T11:53:00;28.40;;;19.63;;
4575;SDS011;2300;51.874;8.430;2024-03-08T11:55:27;27.73;;;18.27;;
4575;SDS011;2300;51.874;8.430;2024-03-08T11:58:00;26.43;;;19.30;;
4575;SDS011;2300;51.874;8.430;2024-03-08T12:00:30;29.13;;;19.70;;
4575;SDS011;2300;51.874;8.430;2024-03-08T12:03:03;30.50;;;19.33;;
4575;SDS011;2300;51.874;8.430;2024-03-08T12:05:31;27.27;;;19.07;;
4575;SDS011;2300;51.874;8.430;2024-03-08T12:07:58;28.73;;;20.37;;
4575;SDS011;2300;51.874;8.430;2024-03-08T12:10:25;30.90;;;20.27;;
4575;SDS011;2300;51.874;8.430;2024-03-08T12:12:53;29.00;;;19.80;;
4575;SDS011;2300;51.874;8.430;2024-03-08T12:15:23;29.40;;;19.97;;
4575;SDS011;2300;51.874;8.430;2024-03-08T12:17:51;28.00;;;19.33;;
4575;SDS011;2300;51.874;8.430;2024-03-08T12:20:19;26.47;;;18.60;;
4575;SDS011;2300;51.874;8.430;2024-03-08T12:22:47;28.77;;;19.40;;
4575;SDS011;2300;51.874;8.430;2024-03-08T12:25:15;29.73;;;20.20;;
4575;SDS011;2300;51.874;8.430;2024-03-08T12:27:42;27.03;;;19.30;;
4575;SDS011;2300;51.874;8.430;2024-03-08T12:30:18;27.10;;;19.60;;
4575;SDS011;2300;51.874;8.430;2024-03-08T12:32:48;26.90;;;19.20;;
4575;SDS011;2300;51.874;8.430;2024-03-08T12:35:18;30.17;;;18.63;;
4575;SDS011;2300;51.874;8.430;2024-03-08T12:37:47;27.80;;;19.03;;
4575;SDS011;2300;51.874;8.430;2024-03-08T12:40:16;28.27;;;19.27;;
4575;SDS011;2300;51.874;8.430;2024-03-08T12:42:43;24.53;;;18.30;;
4575;SDS011;2300;51.874;8.430;2024-03-08T12:45:12;27.93;;;18.67;;
4575;SDS011;2300;51.874;8.430;2024-03-08T12:47:39;25.10;;;17.17;;
4575;SDS011;2300;51.874;8.430;2024-03-08T12:50:08;25.70;;;16.80;;
4575;SDS011;2300;51.874;8.430;2024-03-08T12:52:35;25.90;;;17.90;;
4575;SDS011;2300;51.874;8.430;2024-03-08T12:55:02;23.20;;;16.47;;
4575;SDS011;2300;51.874;8.430;2024-03-08T12:57:31;23.50;;;17.43;;
4575;SDS011;2300;51.874;8.430;2024-03-08T12:59:59;24.27;;;17.17;;
4575;SDS011;2300;51.874;8.430;2024-03-08T13:02:26;25.17;;;16.93;;
4575;SDS011;2300;51.874;8.430;2024-03-08T13:04:52;29.47;;;19.40;;
4575;SDS011;2300;51.874;8.430;2024-03-08T13:07:23;28.80;;;19.63;;
4575;SDS011;2300;51.874;8.430;2024-03-08T13:09:51;29.77;;;20.33;;
4575;SDS011;2300;51.874;8.430;2024-03-08T13:12:18;29.70;;;20.23;;
4575;SDS011;2300;51.874;8.430;2024-03-08T13:14:45;28.00;;;20.07;;
4575;SDS011;2300;51.874;8.430;2024-03-08T13:17:12;33.83;;;20.20;;
4575;SDS011;2300;51.874;8.430;2024-03-08T13:19:39;29.53;;;20.03;;
4575;SDS011;2300;51.874;8.430;2024-03-08T13:22:06;27.57;;;19.90;;
4575;SDS011;2300;51.874;8.430;2024-03-08T13:24:34;29.60;;;20.37;;
4575;SDS011;2300;51.874;8.430;2024-03-08T13:27:00;28.00;;;19.70;;
4575;SDS011;2300;51.874;8.430;2024-03-08T13:29:27;26.37;;;18.20;;
4575;SDS011;2300;51.874;8.430;2024-03-08T13:31:55;26.67;;;19.83;;
4575;SDS011;2300;51.874;8.430;2024-03-08T13:34:25;25.97;;;18.60;;
4575;SDS011;2300;51.874;8.430;2024-03-08T13:36:54;26.90;;;18.87;;
4575;SDS011;2300;51.874;8.430;2024-03-08T13:39:25;25.47;;;17.27;;
4575;SDS011;2300;51.874;8.430;2024-03-08T13:41:53;27.30;;;19.07;;
4575;SDS011;2300;51.874;8.430;2024-03-08T13:44:19;28.00;;;19.57;;
4575;SDS011;2300;51.874;8.430;2024-03-08T13:46:46;29.00;;;19.63;;
4575;SDS011;2300;51.874;8.430;2024-03-08T13:49:16;28.07;;;19.00;;
4575;SDS011;2300;51.874;8.430;2024-03-08T13:51:42;29.70;;;20.20;;
4575;SDS011;2300;51.874;8.430;2024-03-08T13:54:10;28.57;;;20.27;;
4575;SDS011;2300;51.874;8.430;2024-03-08T13:56:37;28.23;;;19.93;;
4575;SDS011;2300;51.874;8.430;2024-03-08T13:59:05;26.93;;;18.93;;
4575;SDS011;2300;51.874;8.430;2024-03-08T14:01:31;28.33;;;20.63;;
4575;SDS011;2300;51.874;8.430;2024-03-08T14:04:00;27.47;;;18.90;;
4575;SDS011;2300;51.874;8.430;2024-03-08T14:06:28;27.07;;;19.73;;
4575;SDS011;2300;51.874;8.430;2024-03-08T14:08:55;30.23;;;20.47;;
4575;SDS011;2300;51.874;8.430;2024-03-08T14:11:22;26.43;;;19.43;;
4575;SDS011;2300;51.874;8.430;2024-03-08T14:13:49;28.23;;;20.53;;
4575;SDS011;2300;51.874;8.430;2024-03-08T14:16:17;30.53;;;20.00;;
4575;SDS011;2300;51.874;8.430;2024-03-08T14:18:43;32.40;;;21.67;;
4575;SDS011;2300;51.874;8.430;2024-03-08T14:21:10;31.50;;;21.17;;
4575;SDS011;2300;51.874;8.430;2024-03-08T14:23:36;29.93;;;21.10;;
4575;SDS011;2300;51.874;8.430;2024-03-08T14:26:03;30.03;;;20.13;;
4575;SDS011;2300;51.874;8.430;2024-03-08T14:28:32;28.87;;;20.00;;
4575;SDS011;2300;51.874;8.430;2024-03-08T14:30:58;30.03;;;21.13;;
4575;SDS011;2300;51.874;8.430;2024-03-08T14:33:29;31.37;;;20.77;;
4575;SDS011;2300;51.874;8.430;2024-03-08T14:35:56;31.97;;;20.60;;
4575;SDS011;2300;51.874;8.430;2024-03-08T14:38:23;30.70;;;21.13;;
4575;SDS011;2300;51.874;8.430;2024-03-08T14:40:52;32.17;;;20.93;;
4575;SDS011;2300;51.874;8.430;2024-03-08T14:43:20;30.30;;;21.13;;
4575;SDS011;2300;51.874;8.430;2024-03-08T14:45:47;33.90;;;21.77;;
4575;SDS011;2300;51.874;8.430;2024-03-08T14:48:15;30.80;;;20.70;;
4575;SDS011;2300;51.874;8.430;2024-03-08T14:50:43;30.47;;;21.33;;